createdAt,value
2022-12-15T00:03:16.305Z,37.88
2022-12-15T00:06:38.057Z,35.97
2022-12-15T00:09:58.655Z,37.28
2022-12-15T00:13:19.561Z,42.92
2022-12-15T00:16:40.446Z,42.67
2022-12-15T00:20:01.559Z,41.83
2022-12-15T00:23:29.689Z,42.37
2022-12-15T00:26:51.086Z,50.65
2022-12-15T00:30:11.989Z,40.75
2022-12-15T00:33:33.218Z,41.70
2022-12-15T00:36:54.363Z,43.05
2022-12-15T00:40:04.704Z,38.23
2022-12-15T00:43:07.002Z,43.22
2022-12-15T00:46:28.160Z,38.92
2022-12-15T00:49:50.242Z,39.17
2022-12-15T00:53:10.964Z,41.85
2022-12-15T00:56:31.909Z,44.40
2022-12-15T00:59:53.051Z,40.45
2022-12-15T01:03:13.995Z,46.37
2022-12-15T01:06:37.703Z,40.40
2022-12-15T01:09:58.251Z,44.70
2022-12-15T01:13:19.219Z,46.83
2022-12-15T01:16:40.241Z,40.97
2022-12-15T01:20:01.882Z,41.00
2022-12-15T01:23:04.152Z,44.97
2022-12-15T01:26:06.935Z,44.25
2022-12-15T01:29:09.146Z,44.67
2022-12-15T01:32:13.164Z,46.50
2022-12-15T01:35:15.835Z,44.67
2022-12-15T01:38:18.343Z,43.85
2022-12-15T01:41:20.728Z,42.45
2022-12-15T01:44:24.579Z,45.57
2022-12-15T01:47:28.088Z,42.17
2022-12-15T01:50:33.080Z,42.05
2022-12-15T01:53:39.804Z,45.80
2022-12-15T01:56:49.959Z,44.70
2022-12-15T01:59:55.924Z,43.67
2022-12-15T02:03:01.962Z,42.55
2022-12-15T02:06:05.143Z,43.83
2022-12-15T02:09:08.285Z,46.95
2022-12-15T02:12:22.992Z,44.45
2022-12-15T02:15:28.186Z,44.17
2022-12-15T02:18:37.703Z,47.70
2022-12-15T02:22:02.750Z,51.17
2022-12-15T02:25:29.701Z,46.78
2022-12-15T02:28:40.386Z,40.12
2022-12-15T02:32:00.349Z,41.07
2022-12-15T02:35:12.387Z,42.53
2022-12-15T02:38:14.943Z,44.80
2022-12-15T02:41:37.275Z,41.30
2022-12-15T02:44:53.708Z,47.65
2022-12-15T02:48:34.399Z,44.77
2022-12-15T02:52:11.303Z,47.58
2022-12-15T02:55:21.245Z,45.72
2022-12-15T02:58:36.380Z,48.08
2022-12-15T03:01:53.864Z,47.88
2022-12-15T03:04:58.336Z,50.07
2022-12-15T03:08:01.377Z,44.97
2022-12-15T03:11:04.041Z,54.58
2022-12-15T03:14:06.381Z,54.10
2022-12-15T03:17:08.980Z,44.15
2022-12-15T03:20:12.089Z,48.87
2022-12-15T03:23:14.807Z,55.78
2022-12-15T03:26:17.090Z,47.47
2022-12-15T03:29:19.894Z,47.50
2022-12-15T03:32:22.153Z,48.13
2022-12-15T03:35:24.688Z,47.10
2022-12-15T03:38:27.024Z,54.03
2022-12-15T03:41:29.520Z,54.10
2022-12-15T03:44:31.797Z,48.63
2022-12-15T03:47:34.397Z,49.03
2022-12-15T03:50:37.515Z,41.37
2022-12-15T03:53:40.851Z,43.15
2022-12-15T03:56:43.178Z,53.20
2022-12-15T03:59:45.749Z,46.03
2022-12-15T04:02:50.198Z,48.20
2022-12-15T04:05:53.150Z,57.27
2022-12-15T04:08:55.532Z,46.28
2022-12-15T04:11:58.106Z,55.30
2022-12-15T04:15:00.430Z,51.37
2022-12-15T04:18:05.365Z,47.80
2022-12-15T04:21:07.601Z,48.33
2022-12-15T04:24:29.125Z,53.40
2022-12-15T04:27:49.968Z,52.70
2022-12-15T04:31:18.148Z,56.67
2022-12-15T04:34:41.884Z,57.08
2022-12-15T04:38:03.223Z,57.87
2022-12-15T04:41:24.784Z,58.05
2022-12-15T04:44:50.161Z,58.75
2022-12-15T04:48:11.603Z,60.40
2022-12-15T04:51:32.579Z,50.88
2022-12-15T04:54:53.295Z,57.67
2022-12-15T04:58:14.677Z,50.60
2022-12-15T05:01:35.382Z,64.10
2022-12-15T05:04:56.689Z,51.10
2022-12-15T05:08:17.716Z,59.13
2022-12-15T05:11:39.080Z,51.87
2022-12-15T05:15:00.026Z,61.45
2022-12-15T05:18:21.286Z,57.42
2022-12-15T05:21:42.317Z,56.58
2022-12-15T05:25:03.205Z,62.72
2022-12-15T05:28:25.163Z,55.93
2022-12-15T05:31:46.341Z,57.38
2022-12-15T05:34:48.634Z,58.90
2022-12-15T05:37:51.158Z,58.97
2022-12-15T05:40:53.463Z,60.42
2022-12-15T05:43:55.985Z,65.37
2022-12-15T05:46:58.239Z,68.80
2022-12-15T05:50:00.798Z,60.60
2022-12-15T05:53:03.070Z,60.22
2022-12-15T05:56:08.345Z,60.67
2022-12-15T05:59:11.076Z,65.30
2022-12-15T06:02:13.672Z,64.40
2022-12-15T06:05:16.357Z,64.50
2022-12-15T06:08:18.581Z,60.15
2022-12-15T06:11:22.333Z,56.80
2022-12-15T06:14:24.544Z,60.23
2022-12-15T06:17:27.173Z,67.05
2022-12-15T06:20:29.559Z,60.33
2022-12-15T06:23:33.344Z,59.13
2022-12-15T06:26:37.997Z,63.28
2022-12-15T06:29:40.534Z,68.50
2022-12-15T06:32:42.771Z,65.32
2022-12-15T06:35:45.426Z,64.72
2022-12-15T06:38:49.985Z,56.15
2022-12-15T06:41:52.747Z,67.35
2022-12-15T06:44:54.985Z,64.17
2022-12-15T06:48:01.301Z,63.95
2022-12-15T06:51:05.838Z,65.45
2022-12-15T06:54:11.239Z,67.93
2022-12-15T06:57:13.540Z,64.75
2022-12-15T07:00:16.428Z,73.83
2022-12-15T07:03:20.417Z,65.25
2022-12-15T07:06:23.165Z,65.07
2022-12-15T07:09:26.254Z,64.53
2022-12-15T07:12:28.908Z,71.03
2022-12-15T07:15:31.886Z,77.37
2022-12-15T07:18:34.469Z,66.53
2022-12-15T07:21:36.764Z,70.50
2022-12-15T07:24:39.332Z,72.65
2022-12-15T07:27:41.622Z,69.57
2022-12-15T07:30:44.283Z,72.13
2022-12-15T07:33:48.476Z,85.90
2022-12-15T07:36:52.781Z,70.30
2022-12-15T07:39:55.212Z,68.15
2022-12-15T07:42:57.731Z,77.05
2022-12-15T07:46:00.423Z,65.10
2022-12-15T07:49:03.132Z,70.28
2022-12-15T07:52:05.498Z,69.75
2022-12-15T07:55:08.383Z,74.28
2022-12-15T07:58:10.631Z,66.80
2022-12-15T08:01:14.701Z,75.10
2022-12-15T08:04:17.524Z,78.65
2022-12-15T08:07:19.805Z,72.65
2022-12-15T08:10:22.381Z,73.32
2022-12-15T08:14:00.191Z,72.05
2022-12-15T08:16:47.566Z,79.00
2022-12-15T08:19:49.891Z,67.22
2022-12-15T08:22:52.471Z,72.12
2022-12-15T08:25:54.789Z,71.50
2022-12-15T08:29:11.894Z,67.53
2022-12-15T08:32:19.787Z,66.97
2022-12-15T08:35:54.619Z,62.72
2022-12-15T08:38:46.044Z,72.62
2022-12-15T08:41:50.038Z,64.10
2022-12-15T08:44:52.374Z,74.65
2022-12-15T08:47:56.132Z,63.73
2022-12-15T08:50:59.214Z,63.78
2022-12-15T08:54:02.315Z,59.00
2022-12-15T08:57:05.274Z,67.28
2022-12-15T09:00:08.586Z,68.70
2022-12-15T09:03:10.837Z,68.13
2022-12-15T09:06:16.328Z,75.28
2022-12-15T09:09:19.647Z,72.30
2022-12-15T09:12:22.327Z,65.68
2022-12-15T09:15:39.471Z,68.18
2022-12-15T09:18:49.610Z,63.27
2022-12-15T09:21:52.103Z,68.87
2022-12-15T09:24:54.638Z,63.15
2022-12-15T09:27:57.231Z,63.45
2022-12-15T09:31:09.115Z,69.53
2022-12-15T09:34:17.831Z,64.30
2022-12-15T09:37:20.912Z,66.22
2022-12-15T09:40:24.177Z,69.87
2022-12-15T09:43:38.919Z,76.30
2022-12-15T09:47:04.990Z,69.10
2022-12-15T09:50:12.644Z,67.87
2022-12-15T09:53:52.948Z,73.62
2022-12-15T09:57:28.772Z,91.60
2022-12-15T10:00:55.637Z,76.18
2022-12-15T10:04:04.265Z,74.60
2022-12-15T10:07:21.773Z,74.43
2022-12-15T10:10:30.704Z,72.37
2022-12-15T10:14:02.580Z,76.80
2022-12-15T10:17:23.824Z,69.45
2022-12-15T10:20:29.883Z,71.50
2022-12-15T10:23:35.999Z,77.50
2022-12-15T10:26:41.296Z,71.93
2022-12-15T10:29:51.801Z,72.85
2022-12-15T10:33:01.549Z,73.10
2022-12-15T10:36:12.471Z,65.95
2022-12-15T10:39:17.655Z,68.57
2022-12-15T10:42:25.691Z,73.97
2022-12-15T10:45:39.204Z,71.32
2022-12-15T10:48:44.216Z,71.35
2022-12-15T10:51:57.494Z,76.50
2022-12-15T10:55:00.801Z,80.63
2022-12-15T10:58:14.524Z,77.70
2022-12-15T11:01:24.973Z,70.53
2022-12-15T11:04:32.261Z,77.05
2022-12-15T11:07:41.661Z,72.12
2022-12-15T11:11:16.988Z,70.60
2022-12-15T11:14:24.330Z,66.32
2022-12-15T11:17:40.578Z,66.15
2022-12-15T11:21:07.669Z,63.72
2022-12-15T11:24:33.980Z,70.70
2022-12-15T11:27:43.408Z,70.83
2022-12-15T11:30:53.075Z,66.97
2022-12-15T11:33:57.135Z,62.33
2022-12-15T11:37:18.746Z,67.87
2022-12-15T11:40:35.795Z,64.80
2022-12-15T11:43:53.295Z,74.30
2022-12-15T11:47:10.781Z,71.28
2022-12-15T11:50:41.221Z,81.32
2022-12-15T11:53:58.910Z,65.15
2022-12-15T11:57:32.676Z,72.18
2022-12-15T12:00:42.754Z,75.07
2022-12-15T12:04:14.633Z,69.07
2022-12-15T12:07:51.912Z,65.05
2022-12-15T12:11:16.810Z,72.07
2022-12-15T12:14:39.885Z,71.45
2022-12-15T12:17:48.018Z,70.57
2022-12-15T12:20:56.593Z,64.95
2022-12-15T12:24:01.566Z,77.55
2022-12-15T12:27:17.968Z,95.18
2022-12-15T12:30:24.163Z,76.28
2022-12-15T12:33:39.877Z,67.73
2022-12-15T12:36:44.946Z,68.78
2022-12-15T12:39:54.134Z,72.25
2022-12-15T12:42:58.498Z,64.05
2022-12-15T12:46:16.168Z,71.70
2022-12-15T12:49:33.444Z,68.87
2022-12-15T12:52:38.047Z,69.65
2022-12-15T12:55:43.712Z,70.30
2022-12-15T12:58:48.461Z,73.22
2022-12-15T13:01:51.363Z,78.20
2022-12-15T13:05:27.287Z,69.93
2022-12-15T13:08:50.962Z,69.85
2022-12-15T13:12:14.989Z,77.07
2022-12-15T13:15:41.697Z,72.05
2022-12-15T13:19:06.758Z,73.97
2022-12-15T13:22:31.604Z,75.50
2022-12-15T13:25:42.491Z,77.95
2022-12-15T13:28:48.835Z,79.68
2022-12-15T13:31:54.004Z,84.82
2022-12-15T13:34:57.651Z,79.07
2022-12-15T13:38:07.491Z,82.10
2022-12-15T13:41:24.385Z,89.10
2022-12-15T13:44:35.364Z,86.53
2022-12-15T13:47:38.549Z,89.28
2022-12-15T13:50:51.367Z,87.90
2022-12-15T13:54:11.877Z,89.43
2022-12-15T13:57:17.383Z,81.00
2022-12-15T14:00:20.389Z,75.45
2022-12-15T14:03:24.062Z,82.03
2022-12-15T14:06:35.205Z,85.18
2022-12-15T14:09:41.997Z,76.00
2022-12-15T14:12:45.875Z,92.80
2022-12-15T14:15:58.315Z,90.55
2022-12-15T14:19:04.213Z,92.80
2022-12-15T14:22:27.055Z,100.35
2022-12-15T14:25:30.763Z,87.77
2022-12-15T14:28:35.953Z,90.22
2022-12-15T14:31:38.572Z,95.47
2022-12-15T14:34:43.977Z,103.95
2022-12-15T14:37:55.990Z,100.57
2022-12-15T14:41:02.064Z,91.90
2022-12-15T14:44:38.356Z,93.15
2022-12-15T14:48:05.742Z,96.32
2022-12-15T14:51:13.807Z,100.47
2022-12-15T14:54:35.599Z,99.28
2022-12-15T14:57:46.569Z,91.10
2022-12-15T15:00:52.522Z,103.32
2022-12-15T15:04:04.666Z,83.47
2022-12-15T15:07:18.326Z,84.95
2022-12-15T15:10:24.336Z,92.20
2022-12-15T15:13:40.020Z,90.17
2022-12-15T15:16:43.708Z,83.93
2022-12-15T15:19:59.019Z,78.07
2022-12-15T15:23:07.289Z,93.20
2022-12-15T15:26:10.603Z,76.97
2022-12-15T15:29:38.060Z,85.13
2022-12-15T15:32:58.075Z,86.37
2022-12-15T15:36:02.655Z,85.38
2022-12-15T15:39:15.769Z,91.05
2022-12-15T15:42:18.578Z,86.12
2022-12-15T15:45:23.419Z,89.23
2022-12-15T15:48:31.083Z,91.28
2022-12-15T15:51:35.217Z,85.50
2022-12-15T15:54:37.553Z,97.78
2022-12-15T15:57:40.102Z,84.70
2022-12-15T16:00:42.418Z,83.33
2022-12-15T16:03:45.140Z,74.80
2022-12-15T16:06:48.040Z,84.93
2022-12-15T16:09:51.651Z,73.90
2022-12-15T16:13:00.809Z,73.75
2022-12-15T16:16:04.394Z,72.03
2022-12-15T16:19:07.004Z,77.82
2022-12-15T16:22:18.484Z,76.72
2022-12-15T16:25:33.112Z,70.82
2022-12-15T16:28:42.223Z,70.05
2022-12-15T16:31:45.808Z,68.27
2022-12-15T16:34:49.758Z,60.80
2022-12-15T16:37:52.346Z,69.90
2022-12-15T16:40:56.650Z,64.22
2022-12-15T16:43:58.902Z,67.80
2022-12-15T16:47:01.561Z,61.50
2022-12-15T16:50:04.178Z,70.12
2022-12-15T16:53:15.353Z,66.20
2022-12-15T16:56:17.644Z,69.85
2022-12-15T16:59:33.028Z,66.35
2022-12-15T17:02:37.435Z,60.87
2022-12-15T17:05:42.039Z,62.30
2022-12-15T17:08:51.688Z,58.97
2022-12-15T17:11:58.491Z,63.80
2022-12-15T17:15:02.486Z,72.57
2022-12-15T17:18:05.140Z,61.97
2022-12-15T17:21:15.959Z,64.28
2022-12-15T17:24:20.476Z,61.70
2022-12-15T17:27:28.253Z,60.03
2022-12-15T17:30:30.865Z,61.50
2022-12-15T17:33:35.733Z,62.50
2022-12-15T17:36:38.583Z,54.88
2022-12-15T17:39:41.902Z,58.67
2022-12-15T17:42:46.118Z,57.17
2022-12-15T17:45:50.860Z,60.92
2022-12-15T17:48:53.469Z,53.97
2022-12-15T17:51:56.203Z,55.47
2022-12-15T17:54:58.796Z,59.05
2022-12-15T17:58:01.113Z,58.53
2022-12-15T18:01:04.176Z,62.95
2022-12-15T18:04:06.877Z,51.90
2022-12-15T18:07:27.392Z,58.80
2022-12-15T18:10:33.761Z,54.05
2022-12-15T18:13:36.048Z,59.63
2022-12-15T18:16:38.791Z,60.03
2022-12-15T18:19:41.066Z,61.13
2022-12-15T18:22:43.971Z,58.72
2022-12-15T18:25:46.348Z,55.03
2022-12-15T18:28:49.682Z,57.45
2022-12-15T18:31:52.364Z,56.60
2022-12-15T18:34:56.224Z,59.70
2022-12-15T18:37:58.635Z,55.20
2022-12-15T18:41:01.612Z,54.78
2022-12-15T18:44:04.026Z,55.80
2022-12-15T18:47:16.788Z,54.63
2022-12-15T18:50:24.957Z,61.77
2022-12-15T18:53:34.324Z,56.47
2022-12-15T18:56:37.157Z,55.22
2022-12-15T18:59:39.811Z,45.97
2022-12-15T19:02:42.715Z,51.28
2022-12-15T19:05:46.051Z,55.30
2022-12-15T19:08:50.065Z,51.42
2022-12-15T19:12:15.435Z,44.38
2022-12-15T19:15:19.345Z,46.42
2022-12-15T19:18:42.162Z,45.45
2022-12-15T19:21:44.547Z,40.03
2022-12-15T19:24:55.755Z,40.63
2022-12-15T19:28:00.072Z,39.47
2022-12-15T19:31:02.823Z,40.08
2022-12-15T19:34:05.181Z,41.83
2022-12-15T19:37:19.814Z,41.43
2022-12-15T19:40:33.196Z,39.25
2022-12-15T19:43:36.245Z,41.05
2022-12-15T19:46:40.862Z,38.88
2022-12-15T19:49:43.567Z,38.55
2022-12-15T19:52:49.115Z,39.03
2022-12-15T19:55:54.421Z,37.38
2022-12-15T19:58:57.007Z,34.40
2022-12-15T20:01:59.679Z,43.92
2022-12-15T20:05:02.447Z,47.47
2022-12-15T20:08:05.128Z,44.23
2022-12-15T20:11:25.794Z,52.40
2022-12-15T20:14:28.127Z,50.33
2022-12-15T20:17:30.628Z,54.83
2022-12-15T20:20:33.389Z,53.80
2022-12-15T20:23:40.640Z,49.80
2022-12-15T20:26:43.922Z,50.28
2022-12-15T20:29:46.532Z,43.97
2022-12-15T20:32:49.409Z,47.65
2022-12-15T20:35:52.445Z,44.92
2022-12-15T20:38:55.772Z,43.13
2022-12-15T20:41:58.369Z,41.37
2022-12-15T20:45:00.635Z,36.33
2022-12-15T20:48:03.225Z,36.67
2022-12-15T20:51:09.824Z,35.78
2022-12-15T20:54:21.292Z,37.47
2022-12-15T20:57:23.586Z,32.30
2022-12-15T21:00:26.374Z,31.85
2022-12-15T21:03:32.961Z,30.95
2022-12-15T21:06:36.904Z,28.40
2022-12-15T21:09:39.638Z,33.67
2022-12-15T21:12:44.194Z,30.30
2022-12-15T21:15:46.840Z,37.03
2022-12-15T21:22:25.824Z,43.35
2022-12-15T21:25:29.956Z,36.70
2022-12-15T21:28:32.636Z,37.53
2022-12-15T21:31:35.448Z,40.17
2022-12-15T21:34:37.950Z,36.30
2022-12-15T21:37:41.896Z,37.22
2022-12-15T21:40:44.443Z,31.97
2022-12-15T21:43:47.025Z,33.75
2022-12-15T21:46:49.333Z,34.83
2022-12-15T21:49:55.014Z,30.42
2022-12-15T21:52:57.527Z,33.95
2022-12-15T21:56:01.524Z,32.93
2022-12-15T21:59:11.642Z,35.13
2022-12-15T22:02:26.209Z,33.90
2022-12-15T22:05:32.556Z,30.88
2022-12-15T22:08:35.427Z,39.08
2022-12-15T22:11:40.219Z,34.23
2022-12-15T22:14:42.566Z,32.67
2022-12-15T22:17:45.498Z,30.20
2022-12-15T22:20:49.918Z,30.17
2022-12-15T22:23:52.713Z,30.42
2022-12-15T22:26:55.020Z,29.07
2022-12-15T22:29:57.623Z,29.60
2022-12-15T22:33:00.552Z,31.70
2022-12-15T22:36:03.104Z,34.92
2022-12-15T22:39:10.741Z,29.70
2022-12-15T22:42:17.506Z,34.10
2022-12-15T22:45:21.402Z,36.92
2022-12-15T22:48:29.878Z,29.52
2022-12-15T22:51:32.359Z,35.67
2022-12-15T22:54:34.871Z,32.97
2022-12-15T22:57:38.441Z,36.00
2022-12-15T23:00:41.627Z,39.97
2022-12-15T23:03:43.947Z,35.92
2022-12-15T23:06:46.591Z,35.53
2022-12-15T23:09:48.838Z,34.65
2022-12-15T23:12:54.462Z,35.33
2022-12-15T23:16:15.469Z,39.28
2022-12-15T23:19:23.996Z,34.25
2022-12-15T23:22:26.457Z,36.72
2022-12-15T23:25:29.394Z,34.58
2022-12-15T23:28:32.727Z,28.87
2022-12-15T23:31:35.494Z,34.13
2022-12-15T23:34:37.841Z,34.33
2022-12-15T23:37:40.738Z,30.00
2022-12-15T23:40:53.088Z,26.60
2022-12-15T23:43:56.007Z,28.67
2022-12-15T23:46:58.373Z,28.95
2022-12-15T23:50:01.123Z,26.98
2022-12-15T23:53:04.352Z,29.10
2022-12-15T23:56:15.657Z,27.33
2022-12-15T23:59:17.882Z,29.93
